Time;durP1;ratioP1;P1;durP2;ratioP2;P2;SDS_P1;SDS_P2;PMS_P1;PMS_P2;Temp;Humidity;BMP_temperature;BMP_pressure;BME280_temperature;BME280_humidity;BME280_pressure;Samples;Min_cycle;Max_cycle;Signal;HPM_P1;HPM_P2
2022/08/06 00:01:08;;;;;;;;;;;13.40;99.90;;;;;;5045816;28;20305;-67
2022/08/06 00:03:35;;;;;;;;;;;13.40;99.90;;;;;;5032976;28;19925;-67
2022/08/06 00:06:02;;;;;;;;;;;13.30;99.90;;;;;;5038421;28;19931;-67
2022/08/06 00:08:29;;;;;;;;;;;13.30;99.90;;;;;;5033864;28;19924;-67
2022/08/06 00:10:55;;;;;;;;;;;13.30;99.90;;;;;;5043670;28;19931;-67
2022/08/06 00:13:24;;;;;;;;;;;13.20;99.90;;;;;;5034814;28;19975;-67
2022/08/06 00:15:52;;;;;;;;;;;13.10;99.90;;;;;;5033368;28;19994;-67
2022/08/06 00:18:18;;;;;;;;;;;12.90;99.90;;;;;;5038178;28;19924;-67
2022/08/06 00:20:45;;;;;;;;;;;12.90;99.90;;;;;;5037600;28;19925;-67
2022/08/06 00:23:12;;;;;;;;;;;12.80;99.90;;;;;;5040621;28;20281;-67
2022/08/06 00:25:39;;;;;;;;;;;12.80;99.90;;;;;;5041896;28;19928;-67
2022/08/06 00:28:05;;;;;;;;;;;12.70;99.90;;;;;;5037225;28;19928;-67
2022/08/06 00:30:34;;;;;;;;;;;12.70;99.90;;;;;;5046292;28;19980;-67
2022/08/06 00:33:00;;;;;;;;;;;12.60;99.90;;;;;;5048353;28;19936;-67
2022/08/06 00:35:27;;;;;;;;;;;12.60;99.90;;;;;;5052406;28;20339;-67
2022/08/06 00:37:54;;;;;;;;;;;12.50;99.90;;;;;;5040059;28;19925;-67
2022/08/06 00:40:22;;;;;;;;;;;12.50;99.90;;;;;;5038212;28;19978;-67
2022/08/06 00:42:48;;;;;;;;;;;12.60;99.90;;;;;;5040370;28;19951;-67
2022/08/06 00:45:15;;;;;;;;;;;12.50;99.90;;;;;;5046409;28;19932;-67
2022/08/06 00:47:43;;;;;;;;;;;12.60;99.90;;;;;;5043153;28;19924;-67
2022/08/06 00:50:10;;;;;;;;;;;12.60;99.90;;;;;;5039865;28;19925;-67
2022/08/06 00:52:37;;;;;;;;;;;12.50;99.90;;;;;;5034554;28;19925;-67
2022/08/06 00:55:04;;;;;;;;;;;12.40;99.90;;;;;;5041056;28;19932;-67
2022/08/06 00:57:31;;;;;;;;;;;12.40;99.90;;;;;;5052203;28;19933;-65
2022/08/06 00:59:58;;;;;;;;;;;12.40;99.90;;;;;;5032465;28;19929;-66
2022/08/06 01:02:24;;;;;;;;;;;12.40;99.90;;;;;;5051866;28;19925;-67
2022/08/06 01:04:53;;;;;;;;;;;12.40;99.90;;;;;;5042182;28;19925;-67
2022/08/06 01:07:20;;;;;;;;;;;12.30;99.90;;;;;;5039305;28;19925;-67
2022/08/06 01:09:46;;;;;;;;;;;12.30;99.90;;;;;;5037350;28;19925;-67
2022/08/06 01:12:13;;;;;;;;;;;12.30;99.90;;;;;;5040340;28;19931;-67
2022/08/06 01:14:40;;;;;;;;;;;12.30;99.90;;;;;;5043646;28;19929;-67
2022/08/06 01:17:09;;;;;;;;;;;12.30;99.90;;;;;;5043745;28;19949;-67
2022/08/06 01:19:41;;;;;;;;;;;12.20;99.90;;;;;;5037590;28;19931;-67
2022/08/06 01:22:16;;;;;;;;;;;12.20;99.90;;;;;;5035368;28;19931;-67
2022/08/06 01:24:59;;;;;;;;;;;12.20;99.90;;;;;;5042498;28;20384;-67
2022/08/06 01:27:37;;;;;;;;;;;12.30;99.90;;;;;;5037877;28;20334;-67
2022/08/06 01:30:06;;;;;;;;;;;12.30;99.90;;;;;;5029618;28;20308;-67
2022/08/06 01:32:36;;;;;;;;;;;12.30;99.90;;;;;;5038951;28;19925;-67
2022/08/06 01:35:06;;;;;;;;;;;12.30;99.90;;;;;;5036588;28;20016;-67
2022/08/06 01:37:36;;;;;;;;;;;12.20;99.90;;;;;;5046014;28;19925;-66
2022/08/06 01:40:07;;;;;;;;;;;12.20;99.90;;;;;;5037052;28;20316;-67
2022/08/06 01:42:36;;;;;;;;;;;12.20;99.90;;;;;;5045597;28;19983;-67
2022/08/06 01:45:06;;;;;;;;;;;12.10;99.90;;;;;;5038021;28;19929;-67
2022/08/06 01:47:33;;;;;;;;;;;12.10;99.90;;;;;;5044295;28;19924;-67
2022/08/06 01:50:01;;;;;;;;;;;12.10;99.90;;;;;;5035795;28;19975;-67
2022/08/06 01:52:29;;;;;;;;;;;12.10;99.90;;;;;;5036221;28;19925;-67
2022/08/06 01:54:58;;;;;;;;;;;12.10;99.90;;;;;;5048990;28;19924;-67
2022/08/06 01:57:25;;;;;;;;;;;12.10;99.90;;;;;;5039617;28;19925;-66
2022/08/06 01:59:54;;;;;;;;;;;12.10;99.90;;;;;;5047725;28;19986;-66
2022/08/06 02:02:23;;;;;;;;;;;12.10;99.90;;;;;;5037733;28;19928;-67
2022/08/06 02:04:52;;;;;;;;;;;12.10;99.90;;;;;;5041431;28;20346;-67
2022/08/06 02:07:21;;;;;;;;;;;12.10;99.90;;;;;;5049440;28;19947;-67
2022/08/06 02:09:49;;;;;;;;;;;12.10;99.90;;;;;;5036288;28;19974;-67
2022/08/06 02:12:18;;;;;;;;;;;12.00;99.90;;;;;;5039047;28;19925;-67
2022/08/06 02:14:47;;;;;;;;;;;12.00;99.90;;;;;;5049449;28;19929;-67
2022/08/06 02:17:14;;;;;;;;;;;11.90;99.90;;;;;;5037732;28;19925;-67
2022/08/06 02:19:44;;;;;;;;;;;11.90;99.90;;;;;;5036411;28;19928;-67
2022/08/06 02:22:12;;;;;;;;;;;11.80;99.90;;;;;;5035546;28;20396;-66
2022/08/06 02:24:39;;;;;;;;;;;11.80;99.90;;;;;;5042472;28;19925;-66
2022/08/06 02:27:06;;;;;;;;;;;11.70;99.90;;;;;;5047508;28;19933;-66
2022/08/06 02:29:33;;;;;;;;;;;11.70;99.90;;;;;;5034886;28;19986;-67
2022/08/06 02:32:00;;;;;;;;;;;11.60;99.90;;;;;;5046802;28;19928;-66
2022/08/06 02:34:27;;;;;;;;;;;11.50;99.90;;;;;;5043489;28;20439;-67
2022/08/06 02:36:58;;;;;;;;;;;11.50;99.90;;;;;;5034937;28;19924;-66
2022/08/06 02:39:27;;;;;;;;;;;11.40;99.90;;;;;;5046012;28;20368;-67
2022/08/06 02:41:57;;;;;;;;;;;11.30;99.90;;;;;;5042411;28;19932;-66
2022/08/06 02:44:40;;;;;;;;;;;11.30;99.90;;;;;;5039388;28;19932;-67
2022/08/06 02:47:10;;;;;;;;;;;11.30;99.90;;;;;;5028983;28;19971;-66
2022/08/06 02:49:38;;;;;;;;;;;11.20;99.90;;;;;;5034177;28;19932;-67
2022/08/06 02:52:11;;;;;;;;;;;11.30;99.90;;;;;;5034899;28;19932;-65
2022/08/06 02:54:39;;;;;;;;;;;11.30;99.90;;;;;;5048839;28;20408;-66
2022/08/06 02:57:08;;;;;;;;;;;11.20;99.90;;;;;;5034654;28;20341;-66
2022/08/06 02:59:39;;;;;;;;;;;11.20;99.90;;;;;;5034657;28;19932;-66
2022/08/06 03:02:08;;;;;;;;;;;11.20;99.90;;;;;;5038666;28;19925;-67
2022/08/06 03:04:37;;;;;;;;;;;11.20;99.90;;;;;;5041803;28;19924;-66
2022/08/06 03:07:08;;;;;;;;;;;11.20;99.90;;;;;;5037474;28;19928;-66
2022/08/06 03:09:36;;;;;;;;;;;11.20;99.90;;;;;;5031358;28;19925;-67
2022/08/06 03:12:03;;;;;;;;;;;11.10;99.90;;;;;;5040282;28;20346;-67
2022/08/06 03:14:32;;;;;;;;;;;11.10;99.90;;;;;;5033606;28;19925;-66
2022/08/06 03:16:59;;;;;;;;;;;11.10;99.90;;;;;;5026356;28;20295;-67
2022/08/06 03:19:27;;;;;;;;;;;11.00;99.90;;;;;;5040628;28;19925;-67
2022/08/06 03:21:54;;;;;;;;;;;11.00;99.90;;;;;;5041700;28;19929;-66
2022/08/06 03:24:23;;;;;;;;;;;10.90;99.90;;;;;;5035129;28;20028;-66
2022/08/06 03:26:50;;;;;;;;;;;10.90;99.90;;;;;;5038257;28;20042;-67
2022/08/06 03:29:18;;;;;;;;;;;10.80;99.90;;;;;;5043415;28;19931;-66
2022/08/06 03:31:45;;;;;;;;;;;10.80;99.90;;;;;;5039985;28;19964;-67
2022/08/06 03:34:12;;;;;;;;;;;10.90;99.90;;;;;;5036787;28;19933;-66
2022/08/06 03:36:40;;;;;;;;;;;10.80;99.90;;;;;;5034245;28;20270;-66
2022/08/06 03:39:07;;;;;;;;;;;10.80;99.90;;;;;;5037327;28;19928;-66
2022/08/06 03:41:37;;;;;;;;;;;10.80;99.90;;;;;;5035072;28;19932;-67
2022/08/06 03:44:04;;;;;;;;;;;10.80;99.90;;;;;;5041598;28;19925;-67
2022/08/06 03:46:33;;;;;;;;;;;10.80;99.90;;;;;;5035994;28;19929;-66
2022/08/06 03:49:02;;;;;;;;;;;10.70;99.90;;;;;;5025935;28;19951;-67
2022/08/06 03:51:30;;;;;;;;;;;10.70;99.90;;;;;;5034391;28;19925;-67
2022/08/06 03:53:59;;;;;;;;;;;10.70;99.90;;;;;;5033499;28;19925;-67
2022/08/06 03:56:27;;;;;;;;;;;10.80;99.90;;;;;;5037841;28;19925;-66
2022/08/06 03:58:57;;;;;;;;;;;10.80;99.90;;;;;;5042010;28;19932;-67
2022/08/06 04:01:25;;;;;;;;;;;10.80;99.90;;;;;;5044806;28;19924;-67
2022/08/06 04:03:52;;;;;;;;;;;10.70;99.90;;;;;;5037243;28;19974;-66
2022/08/06 04:06:20;;;;;;;;;;;10.70;99.90;;;;;;5039256;28;19940;-67
2022/08/06 04:08:48;;;;;;;;;;;10.70;99.90;;;;;;5036845;28;19939;-65
2022/08/06 04:11:15;;;;;;;;;;;10.80;99.90;;;;;;5047947;28;20388;-67
2022/08/06 04:13:43;;;;;;;;;;;10.90;99.90;;;;;;5036016;28;19936;-66
2022/08/06 04:16:11;;;;;;;;;;;10.90;99.90;;;;;;5027333;28;19978;-66
2022/08/06 04:18:39;;;;;;;;;;;10.90;99.90;;;;;;5038621;28;19932;-66
2022/08/06 04:21:08;;;;;;;;;;;10.90;99.90;;;;;;5039435;28;19928;-66
2022/08/06 04:23:37;;;;;;;;;;;10.80;99.90;;;;;;5040180;28;19924;-66
2022/08/06 04:26:05;;;;;;;;;;;10.80;99.90;;;;;;5034452;28;19924;-66
2022/08/06 04:28:34;;;;;;;;;;;10.70;99.90;;;;;;5038926;28;19925;-67
2022/08/06 04:31:01;;;;;;;;;;;10.70;99.90;;;;;;5026890;28;19932;-66
2022/08/06 04:33:31;;;;;;;;;;;10.70;99.90;;;;;;5034972;28;19932;-66
2022/08/06 04:36:04;;;;;;;;;;;10.70;99.90;;;;;;5027212;28;19925;-66
2022/08/06 04:38:32;;;;;;;;;;;10.70;99.90;;;;;;5035602;28;20002;-66
2022/08/06 04:40:59;;;;;;;;;;;10.70;99.90;;;;;;5026577;28;19925;-67
2022/08/06 04:43:26;;;;;;;;;;;10.70;99.90;;;;;;5026574;28;20355;-66
2022/08/06 04:45:53;;;;;;;;;;;10.80;99.90;;;;;;5030255;28;20007;-65
2022/08/06 04:48:20;;;;;;;;;;;10.80;99.90;;;;;;5032719;28;19925;-66
2022/08/06 04:50:48;;;;;;;;;;;10.80;99.90;;;;;;5023924;28;19925;-66
2022/08/06 04:53:16;;;;;;;;;;;10.80;99.90;;;;;;5031866;28;19924;-66
2022/08/06 04:55:45;;;;;;;;;;;10.90;99.90;;;;;;5033810;28;19929;-66
2022/08/06 04:58:13;;;;;;;;;;;11.00;99.90;;;;;;5033333;28;20380;-69
2022/08/06 05:00:42;;;;;;;;;;;11.00;99.90;;;;;;5032880;28;19950;-70
2022/08/06 05:03:09;;;;;;;;;;;11.10;99.90;;;;;;5032636;28;19975;-69
2022/08/06 05:05:39;;;;;;;;;;;11.10;99.90;;;;;;5038076;28;19978;-69
2022/08/06 05:08:09;;;;;;;;;;;11.20;99.90;;;;;;5036399;28;19963;-69
2022/08/06 05:10:51;;;;;;;;;;;11.30;99.90;;;;;;5034547;28;20281;-70
2022/08/06 05:13:20;;;;;;;;;;;11.30;99.90;;;;;;5037942;28;19929;-70
2022/08/06 05:15:51;;;;;;;;;;;11.40;99.90;;;;;;5035227;28;20020;-70
2022/08/06 05:18:21;;;;;;;;;;;11.40;99.90;;;;;;5041013;28;20415;-69
2022/08/06 05:20:49;;;;;;;;;;;11.40;99.90;;;;;;5036905;28;19929;-69
2022/08/06 05:23:19;;;;;;;;;;;11.50;99.90;;;;;;5040328;28;19971;-69
2022/08/06 05:25:45;;;;;;;;;;;11.50;99.90;;;;;;5048746;28;19990;-70
2022/08/06 05:28:12;;;;;;;;;;;11.60;99.90;;;;;;5030181;28;19925;-71
2022/08/06 05:30:43;;;;;;;;;;;11.70;99.90;;;;;;5041555;28;20376;-68
2022/08/06 05:33:10;;;;;;;;;;;11.80;99.90;;;;;;5037382;28;19932;-68
2022/08/06 05:35:37;;;;;;;;;;;11.90;99.90;;;;;;5036233;28;19931;-68
2022/08/06 05:38:03;;;;;;;;;;;12.00;99.90;;;;;;5039568;28;19929;-69
2022/08/06 05:40:34;;;;;;;;;;;12.10;99.90;;;;;;5046709;28;19933;-69
2022/08/06 05:43:01;;;;;;;;;;;12.20;99.90;;;;;;5048063;28;19925;-68
2022/08/06 05:45:28;;;;;;;;;;;12.30;99.90;;;;;;5036379;28;19929;-69
2022/08/06 05:47:56;;;;;;;;;;;12.40;99.90;;;;;;5040796;28;19992;-67
2022/08/06 05:50:27;;;;;;;;;;;12.50;99.90;;;;;;5052300;28;19978;-69
2022/08/06 05:52:56;;;;;;;;;;;12.60;99.90;;;;;;5042688;28;19928;-69
2022/08/06 05:55:24;;;;;;;;;;;12.60;99.90;;;;;;5038402;28;20458;-70
2022/08/06 05:57:54;;;;;;;;;;;12.70;99.90;;;;;;5034734;28;20423;-70
2022/08/06 06:00:22;;;;;;;;;;;12.80;99.90;;;;;;5038868;28;19925;-69
2022/08/06 06:02:51;;;;;;;;;;;12.90;99.90;;;;;;5035766;28;20442;-70
2022/08/06 06:05:19;;;;;;;;;;;13.00;99.90;;;;;;5040141;28;19924;-70
2022/08/06 06:07:45;;;;;;;;;;;13.00;99.90;;;;;;5043312;28;19960;-69
2022/08/06 06:10:13;;;;;;;;;;;13.10;99.90;;;;;;5037280;28;19932;-66
2022/08/06 06:12:40;;;;;;;;;;;13.20;99.90;;;;;;5039001;28;19925;-67
2022/08/06 06:15:10;;;;;;;;;;;13.40;99.90;;;;;;5034012;28;19924;-69
2022/08/06 06:17:45;;;;;;;;;;;13.50;99.90;;;;;;5034075;28;20019;-69
2022/08/06 06:20:16;;;;;;;;;;;13.60;99.90;;;;;;5032888;28;19925;-69
2022/08/06 06:22:46;;;;;;;;;;;13.70;99.90;;;;;;5033864;28;19933;-66
2022/08/06 06:25:15;;;;;;;;;;;13.90;99.90;;;;;;5039962;28;19929;-68
2022/08/06 06:27:45;;;;;;;;;;;14.10;99.90;;;;;;5036791;28;19924;-69
2022/08/06 06:30:16;;;;;;;;;;;14.20;99.90;;;;;;5042828;28;20396;-69
2022/08/06 06:32:47;;;;;;;;;;;14.20;99.90;;;;;;5037595;28;19925;-69
2022/08/06 06:35:17;;;;;;;;;;;14.30;99.90;;;;;;5035343;28;19929;-69
2022/08/06 06:37:47;;;;;;;;;;;14.40;99.90;;;;;;5034987;28;19982;-70
2022/08/06 06:40:22;;;;;;;;;;;14.50;99.90;;;;;;5032027;28;19932;-69
2022/08/06 06:42:55;;;;;;;;;;;14.50;99.90;;;;;;5039603;28;19929;-69
2022/08/06 06:45:29;;;;;;;;;;;14.60;99.90;;;;;;5037688;28;19961;-69
2022/08/06 06:47:59;;;;;;;;;;;14.70;99.90;;;;;;5036361;28;19955;-69
2022/08/06 06:50:27;;;;;;;;;;;14.80;99.90;;;;;;5037366;28;20426;-69
2022/08/06 06:52:54;;;;;;;;;;;14.90;99.90;;;;;;5036704;28;19928;-69
2022/08/06 06:55:24;;;;;;;;;;;15.00;99.90;;;;;;5037680;28;19929;-70
2022/08/06 06:57:52;;;;;;;;;;;15.10;99.90;;;;;;5035870;28;20404;-69
2022/08/06 07:00:19;;;;;;;;;;;15.10;99.90;;;;;;5037774;28;19924;-69
2022/08/06 07:02:48;;;;;;;;;;;15.20;99.90;;;;;;5029509;28;19929;-69
2022/08/06 07:05:16;;;;;;;;;;;15.30;99.90;;;;;;5029919;28;20400;-69
2022/08/06 07:07:43;;;;;;;;;;;15.40;99.90;;;;;;5041564;28;19979;-69
2022/08/06 07:10:12;;;;;;;;;;;15.50;99.90;;;;;;5036671;28;20039;-69
2022/08/06 07:12:40;;;;;;;;;;;15.50;99.90;;;;;;5034637;28;19925;-69
2022/08/06 07:15:09;;;;;;;;;;;15.60;99.90;;;;;;5036218;28;19925;-70
2022/08/06 07:17:37;;;;;;;;;;;15.70;99.90;;;;;;5034731;28;19928;-69
2022/08/06 07:20:08;;;;;;;;;;;15.90;99.90;;;;;;5033050;28;19929;-69
2022/08/06 07:22:36;;;;;;;;;;;16.00;99.90;;;;;;5022513;28;20056;-70
2022/08/06 07:25:04;;;;;;;;;;;16.00;99.90;;;;;;5034342;28;19924;-69
2022/08/06 07:27:33;;;;;;;;;;;16.10;99.90;;;;;;5028467;28;19929;-69
2022/08/06 07:30:00;;;;;;;;;;;16.10;99.90;;;;;;5038355;28;19932;-69
2022/08/06 07:32:28;;;;;;;;;;;16.20;99.90;;;;;;5033421;28;19925;-68
2022/08/06 07:34:55;;;;;;;;;;;16.20;99.90;;;;;;5036715;28;20389;-69
2022/08/06 07:37:25;;;;;;;;;;;16.40;99.90;;;;;;5032227;28;19932;-68
2022/08/06 07:39:53;;;;;;;;;;;16.50;99.90;;;;;;5031914;28;19925;-69
2022/08/06 07:42:20;;;;;;;;;;;16.60;99.90;;;;;;5035270;28;19931;-70
2022/08/06 07:44:49;;;;;;;;;;;16.60;99.90;;;;;;5039393;28;19925;-68
2022/08/06 07:47:17;;;;;;;;;;;16.60;99.90;;;;;;5033352;28;19928;-68
2022/08/06 07:49:45;;;;;;;;;;;16.50;99.90;;;;;;5033714;28;19924;-68
2022/08/06 07:52:14;;;;;;;;;;;16.60;99.90;;;;;;5035795;28;19976;-68
2022/08/06 07:54:43;;;;;;;;;;;16.70;99.90;;;;;;5039982;28;20006;-67
2022/08/06 07:57:11;;;;;;;;;;;16.90;99.90;;;;;;5046911;28;19925;-66
2022/08/06 07:59:37;;;;;;;;;;;17.00;99.90;;;;;;5037373;28;20356;-68
2022/08/06 08:02:05;;;;;;;;;;;17.20;99.90;;;;;;5034146;28;19925;-68
2022/08/06 08:07:17;;;;;;;;;;;17.50;99.90;;;;;;5030434;28;20281;-67
2022/08/06 08:09:45;;;;;;;;;;;17.50;99.90;;;;;;5031476;28;19951;-67
2022/08/06 08:12:13;;;;;;;;;;;17.60;99.90;;;;;;5040108;28;19925;-68
2022/08/06 08:14:40;;;;;;;;;;;17.60;99.90;;;;;;5037655;28;19931;-68
2022/08/06 08:17:07;;;;;;;;;;;17.80;99.90;;;;;;5031738;28;20067;-69
2022/08/06 08:19:34;;;;;;;;;;;17.90;99.90;;;;;;5034987;28;19924;-68
2022/08/06 08:22:05;;;;;;;;;;;18.00;99.90;;;;;;5029554;28;19925;-68
2022/08/06 08:24:33;;;;;;;;;;;18.10;99.90;;;;;;5035462;28;20466;-68
2022/08/06 08:27:03;;;;;;;;;;;18.10;99.90;;;;;;5031694;28;19924;-70
2022/08/06 08:29:30;;;;;;;;;;;18.20;99.90;;;;;;5029963;28;19924;-68
2022/08/06 08:31:57;;;;;;;;;;;18.30;99.90;;;;;;5033232;28;19932;-69
2022/08/06 08:34:23;;;;;;;;;;;18.30;99.90;;;;;;5045182;28;19929;-70
2022/08/06 08:36:50;;;;;;;;;;;18.50;99.90;;;;;;5038975;28;19933;-68
2022/08/06 08:39:17;;;;;;;;;;;18.80;99.90;;;;;;5035002;28;20031;-68
2022/08/06 08:41:45;;;;;;;;;;;18.90;99.90;;;;;;5034442;28;19936;-68
2022/08/06 08:44:14;;;;;;;;;;;19.10;99.90;;;;;;5035510;28;20342;-69
2022/08/06 08:46:41;;;;;;;;;;;19.10;99.90;;;;;;5038431;28;19925;-67
2022/08/06 08:49:13;;;;;;;;;;;19.20;99.90;;;;;;5035815;28;19924;-67
2022/08/06 08:51:41;;;;;;;;;;;19.50;99.90;;;;;;5034835;28;20331;-67
2022/08/06 08:54:09;;;;;;;;;;;19.60;99.90;;;;;;5042329;28;19932;-67
2022/08/06 08:56:37;;;;;;;;;;;19.60;99.90;;;;;;5035355;28;19936;-67
2022/08/06 08:59:04;;;;;;;;;;;19.50;99.90;;;;;;5037721;28;20328;-67
2022/08/06 09:01:33;;;;;;;;;;;19.60;99.90;;;;;;5033925;28;19970;-68
2022/08/06 09:04:02;;;;;;;;;;;19.70;99.90;;;;;;5035884;28;19924;-67
2022/08/06 09:06:29;;;;;;;;;;;19.50;99.90;;;;;;5034310;28;19925;-67
2022/08/06 09:08:56;;;;;;;;;;;19.50;99.90;;;;;;5034415;28;19929;-67
2022/08/06 09:11:23;;;;;;;;;;;19.50;99.90;;;;;;5036291;28;19980;-67
2022/08/06 09:13:50;;;;;;;;;;;19.60;99.90;;;;;;5033439;28;19951;-68
2022/08/06 09:16:17;;;;;;;;;;;19.90;99.90;;;;;;5034096;28;19925;-68
2022/08/06 09:18:45;;;;;;;;;;;20.10;99.90;;;;;;5034613;28;19929;-68
2022/08/06 09:21:13;;;;;;;;;;;20.20;99.90;;;;;;5036936;28;19932;-68
2022/08/06 09:23:40;;;;;;;;;;;20.00;99.90;;;;;;5038198;28;19948;-67
2022/08/06 09:26:07;;;;;;;;;;;20.00;99.90;;;;;;5039611;28;19940;-67
2022/08/06 09:28:35;;;;;;;;;;;20.20;99.90;;;;;;5037989;28;20467;-68
2022/08/06 09:31:04;;;;;;;;;;;20.20;99.90;;;;;;5040046;28;20024;-68
2022/08/06 09:33:31;;;;;;;;;;;20.10;99.90;;;;;;5036882;28;19928;-68
2022/08/06 09:36:01;;;;;;;;;;;20.20;99.90;;;;;;5037766;28;19974;-67
2022/08/06 09:38:28;;;;;;;;;;;20.20;99.90;;;;;;5034291;28;19932;-68
2022/08/06 09:41:05;;;;;;;;;;;20.30;99.90;;;;;;5028945;28;19924;-67
2022/08/06 09:43:32;;;;;;;;;;;20.30;99.90;;;;;;5031514;28;19925;-67
2022/08/06 09:45:59;;;;;;;;;;;20.20;99.90;;;;;;5034874;28;19971;-69
2022/08/06 09:48:26;;;;;;;;;;;20.20;99.90;;;;;;5037689;28;19932;-68
2022/08/06 09:50:53;;;;;;;;;;;20.30;99.90;;;;;;5042567;28;19975;-65
2022/08/06 09:53:22;;;;;;;;;;;20.40;99.90;;;;;;5037663;28;19924;-68
2022/08/06 09:55:49;;;;;;;;;;;20.40;99.90;;;;;;5041692;28;19929;-67
2022/08/06 09:58:27;;;;;;;;;;;20.40;99.90;;;;;;5038542;28;19936;-67
2022/08/06 10:00:53;;;;;;;;;;;20.50;99.90;;;;;;5038723;28;19936;-69
2022/08/06 10:03:20;;;;;;;;;;;20.70;99.90;;;;;;5038824;28;19925;-69
2022/08/06 10:05:47;;;;;;;;;;;20.90;99.90;;;;;;5037318;28;19925;-68
2022/08/06 10:08:16;;;;;;;;;;;21.00;99.90;;;;;;5035875;28;19987;-68
2022/08/06 10:10:45;;;;;;;;;;;21.10;99.90;;;;;;5037989;28;20383;-68
2022/08/06 10:13:17;;;;;;;;;;;21.10;99.90;;;;;;5035202;28;19929;-67
2022/08/06 10:15:45;;;;;;;;;;;21.10;99.90;;;;;;5035440;28;19925;-68
2022/08/06 10:18:29;;;;;;;;;;;21.30;99.90;;;;;;5038173;28;19924;-68
2022/08/06 10:21:03;;;;;;;;;;;21.50;99.90;;;;;;5043822;28;19931;-67
2022/08/06 10:23:31;;;;;;;;;;;21.50;99.90;;;;;;5050832;28;19932;-67
2022/08/06 10:25:59;;;;;;;;;;;21.50;99.90;;;;;;5039332;28;19928;-67
2022/08/06 10:28:27;;;;;;;;;;;21.60;99.90;;;;;;5038894;28;19933;-67
2022/08/06 10:30:54;;;;;;;;;;;21.70;99.90;;;;;;5039759;28;20581;-67
2022/08/06 10:33:23;;;;;;;;;;;21.80;99.90;;;;;;5032230;28;19924;-68
2022/08/06 10:35:52;;;;;;;;;;;22.00;99.90;;;;;;5029519;28;20289;-69
2022/08/06 10:38:21;;;;;;;;;;;22.10;99.90;;;;;;5031783;28;19925;-68
2022/08/06 10:40:49;;;;;;;;;;;22.20;99.90;;;;;;5031880;28;19932;-68
2022/08/06 10:43:16;;;;;;;;;;;;;;;;;;5033132;28;19936;-70
2022/08/06 10:45:45;;;;;;;;;;;22.50;99.90;;;;;;5027366;28;19925;-66
2022/08/06 10:48:12;;;;;;;;;;;22.40;99.90;;;;;;5030074;28;19925;-66
2022/08/06 10:50:39;;;;;;;;;;;22.50;99.90;;;;;;5037058;28;19932;-66
2022/08/06 10:53:08;;;;;;;;;;;22.50;99.90;;;;;;5038797;28;19924;-66
2022/08/06 10:55:35;;;;;;;;;;;22.60;99.90;;;;;;5037348;28;19925;-68
2022/08/06 10:58:03;;;;;;;;;;;22.70;99.90;;;;;;5042410;28;19924;-80
2022/08/06 11:00:32;;;;;;;;;;;23.00;99.90;;;;;;5042453;28;19928;-69
2022/08/06 11:03:04;;;;;;;;;;;23.10;99.90;;;;;;5023674;28;19925;-67
2022/08/06 11:05:36;;;;;;;;;;;23.10;99.90;;;;;;5030606;28;19936;-68
2022/08/06 11:08:20;;;;;;;;;;;23.20;99.90;;;;;;5031993;28;19933;-67
2022/08/06 11:10:59;;;;;;;;;;;23.50;99.90;;;;;;5045209;28;20459;-66
2022/08/06 11:13:30;;;;;;;;;;;23.70;99.90;;;;;;5032315;28;19933;-67
2022/08/06 11:15:57;;;;;;;;;;;23.60;99.90;;;;;;5031621;28;19948;-67
2022/08/06 11:18:25;;;;;;;;;;;23.80;99.90;;;;;;5032403;28;20339;-67
2022/08/06 11:20:54;;;;;;;;;;;23.90;99.90;;;;;;5032546;28;19925;-67
2022/08/06 11:23:25;;;;;;;;;;;24.00;99.90;;;;;;5032775;28;19925;-66
2022/08/06 11:25:52;;;;;;;;;;;24.00;99.90;;;;;;5034275;28;19982;-66
2022/08/06 11:28:20;;;;;;;;;;;24.20;99.90;;;;;;5030630;28;20578;-67
2022/08/06 11:30:48;;;;;;;;;;;24.30;99.90;;;;;;5032755;28;19929;-65
2022/08/06 11:33:18;;;;;;;;;;;24.40;99.90;;;;;;5030059;28;19925;-67
2022/08/06 11:35:48;;;;;;;;;;;24.50;99.90;;;;;;5029061;28;19932;-67
2022/08/06 11:38:16;;;;;;;;;;;24.50;99.90;;;;;;5025283;28;19924;-67
2022/08/06 11:41:01;;;;;;;;;;;24.90;99.90;;;;;;5029932;28;19925;-66
2022/08/06 11:43:43;;;;;;;;;;;27.00;99.90;;;;;;5032121;28;19925;-68
2022/08/06 11:46:21;;;;;;;;;;;27.10;99.90;;;;;;5031578;28;20350;-67
2022/08/06 11:49:06;;;;;;;;;;;29.00;99.90;;;;;;5032486;28;20466;-67
2022/08/06 11:51:38;;;;;;;;;;;30.20;99.90;;;;;;5027321;28;19924;-65
2022/08/06 11:54:09;;;;;;;;;;;31.40;99.90;;;;;;5034082;28;19940;-67
2022/08/06 11:56:35;;;;;;;;;;;32.40;98.30;;;;;;5030210;28;19936;-67
2022/08/06 11:59:12;;;;;;;;;;;33.20;97.30;;;;;;5036565;28;20332;-68
2022/08/06 12:01:45;;;;;;;;;;;33.60;96.10;;;;;;5034866;28;19924;-67
2022/08/06 12:04:40;;;;;;;;;;;33.30;96.70;;;;;;5036908;28;19925;-67
2022/08/06 12:07:20;;;;;;;;;;;34.60;95.50;;;;;;5029931;28;19925;-68
2022/08/06 12:09:48;;;;;;;;;;;35.20;93.90;;;;;;5034530;28;19931;-67
2022/08/06 12:12:34;;;;;;;;;;;35.50;93.40;;;;;;5034382;28;19929;-67
2022/08/06 12:15:01;;;;;;;;;;;35.40;92.70;;;;;;5033106;28;20324;-66
2022/08/06 12:17:29;;;;;;;;;;;35.10;92.80;;;;;;5034288;28;19979;-67
2022/08/06 12:19:57;;;;;;;;;;;35.00;93.00;;;;;;5032426;28;19925;-67
2022/08/06 12:22:26;;;;;;;;;;;34.60;92.00;;;;;;5034721;28;20008;-67
2022/08/06 12:24:54;;;;;;;;;;;34.80;92.10;;;;;;5035065;28;19925;-67
2022/08/06 12:27:21;;;;;;;;;;;34.90;91.40;;;;;;5036528;28;19924;-67
2022/08/06 12:29:48;;;;;;;;;;;35.80;91.00;;;;;;5040160;28;19933;-69
2022/08/06 12:32:22;;;;;;;;;;;35.70;90.70;;;;;;5037232;28;19929;-67
2022/08/06 12:34:49;;;;;;;;;;;36.00;90.00;;;;;;5036375;28;19929;-68
2022/08/06 12:37:15;;;;;;;;;;;36.60;89.40;;;;;;5038647;28;19924;-67
2022/08/06 12:42:29;;;;;;;;;;;35.40;91.00;;;;;;5038330;28;19939;-68
2022/08/06 12:44:56;;;;;;;;;;;36.50;90.60;;;;;;5041057;28;19991;-67
2022/08/06 12:47:25;;;;;;;;;;;36.60;90.30;;;;;;5040368;28;19971;-67
2022/08/06 12:49:52;;;;;;;;;;;34.50;90.50;;;;;;5036695;28;19932;-66
2022/08/06 12:52:20;;;;;;;;;;;33.10;90.60;;;;;;5039034;28;19929;-67
2022/08/06 12:54:48;;;;;;;;;;;32.40;90.30;;;;;;5039822;28;19925;-67
2022/08/06 12:57:22;;;;;;;;;;;33.30;91.00;;;;;;5039045;28;19936;-67
2022/08/06 12:59:49;;;;;;;;;;;33.30;90.60;;;;;;5039109;28;19935;-68
2022/08/06 13:02:17;;;;;;;;;;;33.30;90.60;;;;;;5035631;28;20377;-68
2022/08/06 13:04:45;;;;;;;;;;;34.40;90.60;;;;;;5025845;28;19928;-67
2022/08/06 13:07:12;;;;;;;;;;;35.20;90.80;;;;;;5037323;28;19933;-69
2022/08/06 13:09:41;;;;;;;;;;;34.70;90.20;;;;;;5042994;23;20059;-67
2022/08/06 13:12:20;;;;;;;;;;;32.60;90.60;;;;;;5025027;28;20478;-67
2022/08/06 13:14:52;;;;;;;;;;;30.70;91.60;;;;;;5029279;28;20359;-67
2022/08/06 13:17:21;;;;;;;;;;;30.10;92.50;;;;;;5027404;28;20435;-67
2022/08/06 13:19:51;;;;;;;;;;;29.30;93.00;;;;;;5030373;28;20404;-71
2022/08/06 13:22:18;;;;;;;;;;;28.80;92.70;;;;;;5035433;28;19929;-67
2022/08/06 13:24:44;;;;;;;;;;;28.00;92.90;;;;;;5035885;28;19925;-66
2022/08/06 13:27:11;;;;;;;;;;;27.30;93.60;;;;;;5035662;28;19924;-66
2022/08/06 13:29:59;;;;;;;;;;;26.40;94.10;;;;;;5035691;28;19982;-67
2022/08/06 13:32:26;;;;;;;;;;;26.40;94.50;;;;;;5035193;28;19933;-67
2022/08/06 13:34:54;;;;;;;;;;;27.10;94.60;;;;;;5034809;28;20054;-67
2022/08/06 13:37:36;;;;;;;;;;;28.70;94.20;;;;;;5034949;28;20439;-67
2022/08/06 13:40:03;;;;;;;;;;;30.30;93.40;;;;;;5033181;28;19928;-70
2022/08/06 13:42:30;;;;;;;;;;;32.00;92.50;;;;;;5034729;28;19975;-67
2022/08/06 13:44:58;;;;;;;;;;;32.80;91.60;;;;;;5035230;28;19974;-68
2022/08/06 13:47:29;;;;;;;;;;;33.10;91.90;;;;;;5034507;28;19925;-69
2022/08/06 13:49:56;;;;;;;;;;;34.00;91.50;;;;;;5034155;28;19925;-68
2022/08/06 13:52:23;;;;;;;;;;;34.40;90.90;;;;;;5035535;28;20003;-68
2022/08/06 13:54:49;;;;;;;;;;;34.10;90.80;;;;;;5033830;28;19932;-68
2022/08/06 13:57:17;;;;;;;;;;;34.50;90.90;;;;;;5035154;28;19925;-69
2022/08/06 13:59:43;;;;;;;;;;;35.10;90.30;;;;;;5034233;28;19931;-68
2022/08/06 14:02:12;;;;;;;;;;;34.80;90.60;;;;;;5034766;28;19929;-68
2022/08/06 14:04:38;;;;;;;;;;;35.60;90.00;;;;;;5034155;28;20362;-68
2022/08/06 14:07:06;;;;;;;;;;;36.20;89.30;;;;;;5034367;28;19971;-68
2022/08/06 14:09:32;;;;;;;;;;;34.80;88.60;;;;;;5027857;28;20303;-68
2022/08/06 14:12:00;;;;;;;;;;;34.20;89.60;;;;;;5034754;28;19933;-68
2022/08/06 14:14:27;;;;;;;;;;;33.90;90.10;;;;;;5034163;28;19924;-69
2022/08/06 14:16:55;;;;;;;;;;;34.30;89.10;;;;;;5034254;28;19936;-68
2022/08/06 14:19:23;;;;;;;;;;;34.00;88.40;;;;;;5033534;28;19925;-68
2022/08/06 14:21:50;;;;;;;;;;;32.40;89.90;;;;;;5033987;28;19936;-68
2022/08/06 14:24:16;;;;;;;;;;;30.70;90.50;;;;;;5033930;28;19925;-68
2022/08/06 14:26:43;;;;;;;;;;;29.60;91.60;;;;;;5032420;28;19928;-67
2022/08/06 14:29:10;;;;;;;;;;;28.70;92.00;;;;;;5033650;28;19924;-67
2022/08/06 14:31:37;;;;;;;;;;;28.00;91.90;;;;;;5029836;28;20430;-67
2022/08/06 14:34:03;;;;;;;;;;;27.90;92.50;;;;;;5029419;28;19925;-68